SV2HRT-2 Agia Triada GR current weather conditions

sailwx.info

Wind from 090 at 4 knots gusting 4

Air temperature 23.9° C
Dewpoint 13.1° C

Last reported at 2017-Aug-22 08:05 UTC.
Time now 2017-Aug-22 09:10 UTC

Location: N 40°30' E 022°53'.
View on Google Maps.

See reports from other nearby stations

  
Tides and Currents Weather Stations Pressure Air Temp Water Temp Dewpoint Dewpoint Depression Visibility Wind Speed Wind Dir Waves Ship Positions
date/time (UTC)wind fromknots sea level pressurealtimeterstation pressurevisibilityair tempwater tempwave heightnotes
2017-Aug-22 08:05 090 4 gusting 4 23.9
2017-Aug-22 07:56 090 6 gusting 6 23.3
2017-Aug-22 07:47 112 6 gusting 6 23.3
2017-Aug-22 07:38 039 10 gusting 10 23.3
2017-Aug-22 07:29 090 5 gusting 5 23.3
2017-Aug-22 07:20 022 7 gusting 5 23.3
2017-Aug-22 07:11 292 5 gusting 5 22.8
2017-Aug-22 07:02 090 6 gusting 6 22.8
2017-Aug-22 06:53 090 7 gusting 7 22.8
2017-Aug-22 06:44 090 7 gusting 8 22.8
2017-Aug-22 06:35 090 4 gusting 4 22.8
2017-Aug-22 06:26 090 11 gusting 13 22.8
2017-Aug-22 06:17 090 10 gusting 10 22.8
2017-Aug-22 06:08 090 5 gusting 5 23.3
2017-Aug-22 05:59 090 4 gusting 2 22.8
2017-Aug-22 05:52 090 7 gusting 7 22.2
2017-Aug-22 05:41 090 7 gusting 7 22.2
2017-Aug-22 05:32 112 5 gusting 5 22.2
2017-Aug-22 05:23 114 5 gusting 5 21.7
2017-Aug-22 05:14 114 5 gusting 5 21.7
2017-Aug-22 05:05 112 5 gusting 5 21.7
2017-Aug-22 04:56 112 5 gusting 5 21.7
2017-Aug-22 04:48 097 6 gusting 6 21.7
2017-Aug-22 04:38 049 11 gusting 11 21.7
2017-Aug-22 04:29 090 6 gusting 6 21.7
2017-Aug-22 04:20 090 10 gusting 11 21.7
2017-Aug-22 04:11 112 12 gusting 2 21.7
2017-Aug-22 04:02 090 6 gusting 6 21.7
2017-Aug-22 03:53 090 4 gusting 6 21.7
2017-Aug-22 03:44 090 1 gusting 2 21.7
2017-Aug-22 03:35 090 4 gusting 6 21.7
2017-Aug-22 03:26 090 4 gusting 2 21.7
2017-Aug-22 03:17 090 4 gusting 7 21.7
2017-Aug-22 03:08 090 10 gusting 10 21.7
2017-Aug-22 02:59 090 6 gusting 6 21.7
2017-Aug-22 02:50 090 7 gusting 7 21.7
2017-Aug-22 02:41 090 8 gusting 8 22.2
2017-Aug-22 02:32 090 4 gusting 6 22.2
2017-Aug-22 02:23 091 4 gusting 2 22.2
2017-Aug-22 02:14 090 6 gusting 6 22.2
2017-Aug-22 02:05 090 4 gusting 4 22.2
2017-Aug-22 01:56 024 6 gusting 6 22.2
2017-Aug-22 01:50 098 4 gusting 4 22.2
2017-Aug-22 01:47 098 4 gusting 4 22.2
2017-Aug-22 01:38 022 6 gusting 6 22.2
2017-Aug-22 01:29 022 4 gusting 4 22.2
2017-Aug-22 01:20 022 2 gusting 11 22.2
2017-Aug-22 01:11 112 6 gusting 6 22.2
2017-Aug-22 01:02 100 6 gusting 13 22.2
2017-Aug-22 00:53 090 8 gusting 11 22.2
2017-Aug-22 00:44 090 7 gusting 4 22.8
2017-Aug-22 00:35 090 7 gusting 8 22.8
2017-Aug-22 00:26 090 8 gusting 8 22.8
2017-Aug-22 00:17 022 6 gusting 5 22.8
2017-Aug-22 00:08 112 6 gusting 4 22.8
2017-Aug-21 23:59 090 6 gusting 6 22.8
2017-Aug-21 23:50 090 6 gusting 5 22.8
2017-Aug-21 23:41 090 2 gusting 6 22.8
2017-Aug-21 23:32 090 5 gusting 5 22.8
2017-Aug-21 23:23 112 4 gusting 4 22.8
2017-Aug-21 23:14 090 6 gusting 2 23.3
2017-Aug-21 23:07 112 5 gusting 2 23.3
2017-Aug-21 22:56 065 6 gusting 6 23.3
2017-Aug-21 22:47 090 4 gusting 7 23.3
2017-Aug-21 22:38 021 5 gusting 5 23.3
2017-Aug-21 22:29 090 10 gusting 11 23.3
2017-Aug-21 22:20 090 5 gusting 7 23.3
2017-Aug-21 22:14 112 6 gusting 8 23.3
2017-Aug-21 22:02 112 6 gusting 6 23.3
2017-Aug-21 21:53 090 7 gusting 7 23.3
2017-Aug-21 21:44 090 6 gusting 6 23.3
2017-Aug-21 21:35 090 7 gusting 8 23.3
2017-Aug-21 21:26 101 5 gusting 8 23.3
2017-Aug-21 21:17 097 7 gusting 10 23.3
2017-Aug-21 21:08 090 12 gusting 12 23.3
2017-Aug-21 20:59 112 7 gusting 7 23.9
2017-Aug-21 20:50 090 11 gusting 12 23.9
2017-Aug-21 20:41 090 7 gusting 8 23.9
2017-Aug-21 20:32 090 4 gusting 7 23.9
2017-Aug-21 20:23 090 6 gusting 6 23.9
2017-Aug-21 20:14 112 10 gusting 4 23.9
2017-Aug-21 20:05 090 12 gusting 8 23.9
2017-Aug-21 19:56 090 8 gusting 8 23.9
2017-Aug-21 19:47 090 7 gusting 7 24.4
2017-Aug-21 19:38 090 6 gusting 10 24.4
2017-Aug-21 19:29 112 12 gusting 13 24.4
2017-Aug-21 19:20 022 5 gusting 6 24.4
2017-Aug-21 19:11 090 10 gusting 11 24.4
2017-Aug-21 19:02 090 12 gusting 12 24.4
2017-Aug-21 18:53 090 5 gusting 6 24.4
2017-Aug-21 18:44 090 7 gusting 6 24.4
2017-Aug-21 18:35 112 7 gusting 5 24.4
2017-Aug-21 18:26 090 6 gusting 10 25.0
2017-Aug-21 18:17 090 10 gusting 6 25.0
2017-Aug-21 18:08 112 4 gusting 4 25.0
2017-Aug-21 17:59 090 6 gusting 6 25.0
2017-Aug-21 17:50 090 2 gusting 2 25.0
2017-Aug-21 17:41 096 4 gusting 8 25.0
2017-Aug-21 17:32 023 10 gusting 6 25.0
2017-Aug-21 17:23 090 6 gusting 7 25.6
2017-Aug-21 17:14 25.6
2017-Aug-21 17:09 090 6 gusting 6 25.6
2017-Aug-21 16:56 101 2 gusting 6 25.6
2017-Aug-21 16:47 112 4 gusting 4 25.6
2017-Aug-21 16:38 180 6 gusting 6 25.6
2017-Aug-21 16:30 090 10 gusting 10 25.6
2017-Aug-21 16:29 090 10 gusting 10 25.6
2017-Aug-21 16:20 041 4 gusting 6 25.6
2017-Aug-21 16:11 022 7 gusting 7 26.1
2017-Aug-21 16:02 133 2 gusting 2 26.1
2017-Aug-21 15:53 112 5 gusting 1 26.1
2017-Aug-21 15:45 090 6 gusting 6 26.1
2017-Aug-21 15:44 090 6 gusting 6 26.1
2017-Aug-21 15:35 024 2 gusting 2 26.7
2017-Aug-21 15:26 024 2 gusting 2 26.7
2017-Aug-21 15:17 024 2 gusting 2 26.7
2017-Aug-21 15:08 024 2 gusting 2 26.7
2017-Aug-21 14:59 024 2 gusting 2 26.7
2017-Aug-21 14:50 022 2 gusting 2 26.7
2017-Aug-21 14:41 022 2 gusting 2 26.7
2017-Aug-21 14:32 022 5 gusting 5 26.7
2017-Aug-21 14:23 090 4 gusting 4 26.7
2017-Aug-21 14:14 075 5 gusting 5 26.7
2017-Aug-21 14:05 022 5 gusting 5 26.7
2017-Aug-21 13:56 022 6 gusting 6 26.7
2017-Aug-21 13:51 022 5 gusting 5 26.7
2017-Aug-21 13:47 022 5 gusting 5 26.7
2017-Aug-21 13:38 022 4 gusting 5 26.7
2017-Aug-21 13:30 091 7 gusting 7 26.7
2017-Aug-21 13:29 091 7 gusting 7 26.7
2017-Aug-21 13:20 091 7 gusting 7 26.7
2017-Aug-21 13:11 091 7 gusting 7 26.7
2017-Aug-21 13:02 091 7 gusting 7 26.7
2017-Aug-21 12:53 090 7 gusting 7 26.7
2017-Aug-21 12:44 090 7 gusting 7 26.7
2017-Aug-21 12:35 090 7 gusting 7 26.7
2017-Aug-21 12:26 112 2 gusting 4 26.7
2017-Aug-21 12:17 090 5 gusting 5 26.7
2017-Aug-21 12:08 112 4 gusting 5 26.7
2017-Aug-21 12:02 090 4 gusting 2
2017-Aug-21 11:59 090 4 gusting 2 26.7
2017-Aug-21 11:51 090 2 gusting 6 26.7
2017-Aug-21 11:41 089 7 gusting 7 26.1
2017-Aug-21 11:32 090 6 gusting 7 26.1
2017-Aug-21 11:23 090 4 gusting 4 26.1
2017-Aug-21 11:14 027 2 gusting 2 26.1
2017-Aug-21 11:05 090 2 gusting 2 25.6
2017-Aug-21 10:56 074 1 gusting 5 25.6
2017-Aug-21 10:47 022 5 gusting 5 25.6
2017-Aug-21 10:38 022 2 gusting 4 25.6
2017-Aug-21 10:29 104 1 gusting 2 25.0
2017-Aug-21 10:20 022 2 gusting 4 25.0
2017-Aug-21 10:13 112 0 gusting 0
2017-Aug-21 10:02 022 1 gusting 1 25.0
2017-Aug-21 09:56 022 2 gusting 2 25.0
2017-Aug-21 09:53 022 2 gusting 2 25.0
2017-Aug-21 09:45 114 23.3
2017-Aug-21 09:44 114 23.3
2017-Aug-21 09:35 114 23.3
2017-Aug-21 09:26 114 23.3
2017-Aug-21 09:17 114 23.3
2017-Aug-21 09:08 114 23.3
2017-Aug-21 08:59 114 23.3
2017-Aug-21 08:50 114 23.3
2017-Aug-21 08:41 114 23.3
2017-Aug-21 08:32 114 23.3
2017-Aug-21 08:23 114 23.3
2017-Aug-21 08:14 114 23.3
2017-Aug-21 08:05 114 23.3
2017-Aug-21 07:56 114 23.3
2017-Aug-21 07:49 112 23.3
2017-Aug-21 07:38 112 23.3
2017-Aug-21 07:29 112 23.3
2017-Aug-21 07:20 090 0 gusting 0 23.3
2017-Aug-21 07:11 112 23.3
2017-Aug-21 07:02 024 0 gusting 0 24.4
2017-Aug-21 06:53 024 0 gusting 0 24.4
2017-Aug-21 06:44 024 0 gusting 0 24.4
2017-Aug-21 06:35 024 0 gusting 0 24.4
2017-Aug-21 06:26 024 0 gusting 0 24.4
2017-Aug-21 06:17 024 0 gusting 0 24.4
2017-Aug-21 06:08 024 0 gusting 0 24.4
2017-Aug-21 05:59 024 0 gusting 0 24.4
2017-Aug-21 05:50 022 0 gusting 0 24.4
2017-Aug-21 05:41 022 1 gusting 2 24.4
2017-Aug-21 05:32 022 4 gusting 4 23.9
2017-Aug-21 05:23 022 1 gusting 1 24.4
2017-Aug-21 05:14 057 5 gusting 5 24.4
2017-Aug-21 05:05 090 1 gusting 1 24.4
2017-Aug-21 04:56 090 0 gusting 0 24.4
2017-Aug-21 04:47 022 1 gusting 2 24.4
2017-Aug-21 04:38 097 0 gusting 1 24.4
2017-Aug-21 04:29 090 1 gusting 1 24.4
2017-Aug-21 04:20 090 2 gusting 2 24.4
2017-Aug-21 04:11 090 2 gusting 2 24.4
2017-Aug-21 04:02 090 1 gusting 2 24.4
2017-Aug-21 03:53 037 0 gusting 1 25.0
2017-Aug-21 03:44 090 2 gusting 2 25.0
2017-Aug-21 03:35 090 1 gusting 4 25.0
2017-Aug-21 03:26 022 0 25.6
2017-Aug-21 03:19 292 1 gusting 2 25.6
2017-Aug-21 03:08 087 0 gusting 0 25.6
2017-Aug-21 02:59 085 26.1
2017-Aug-21 02:50 090 26.1
2017-Aug-21 02:41 090 26.1
2017-Aug-21 02:32 090 4 gusting 4 26.1
2017-Aug-21 02:23 094 5 gusting 5 26.1
2017-Aug-21 02:14 090 6 gusting 6 26.1
2017-Aug-21 02:05 091 5 gusting 5 26.1
2017-Aug-21 01:56 112 6 gusting 4 26.1
2017-Aug-21 01:47 112 5 gusting 8 26.1
2017-Aug-21 01:38 090 2 gusting 4 26.1
2017-Aug-21 01:29 100 1 gusting 4 26.1
2017-Aug-21 01:20 022 2 gusting 2 26.1
2017-Aug-21 01:11 090 26.1
2017-Aug-21 01:03 26.1
2017-Aug-21 00:53 007 4 gusting 4 26.1
2017-Aug-21 00:44 087 26.1
2017-Aug-21 00:35 022 26.1
2017-Aug-21 00:26 26.1
2017-Aug-21 00:17 022 1 gusting 2 26.1
2017-Aug-21 00:08 096 26.1
2017-Aug-20 23:59 202 26.1
2017-Aug-20 23:50 202 26.1
2017-Aug-20 23:41 202 26.1
2017-Aug-20 23:32 202 26.1
2017-Aug-20 23:24 202 26.1
2017-Aug-20 23:14 202 26.1
2017-Aug-20 23:05 202 26.1
2017-Aug-20 22:56 202 26.1
2017-Aug-20 22:47 112 26.1
2017-Aug-20 22:38 112 26.7
2017-Aug-20 22:29 112 26.7
2017-Aug-20 22:20 202 26.7
2017-Aug-20 22:11 202 26.7
2017-Aug-20 22:02 202 26.7
2017-Aug-20 21:55 247 26.7
2017-Aug-20 21:53 247 26.7
2017-Aug-20 21:44 270 26.7
2017-Aug-20 21:35 292 26.7
2017-Aug-20 21:26 292 26.7
2017-Aug-20 21:17 270 26.7
2017-Aug-20 21:08 202 26.7
2017-Aug-20 20:59 202 26.7
2017-Aug-20 20:50 202 26.7
2017-Aug-20 20:41 202 26.7
2017-Aug-20 20:32 202 26.7
2017-Aug-20 20:23 180 26.7
2017-Aug-20 20:14 180 26.7
2017-Aug-20 20:05 180 26.7
2017-Aug-20 19:56 180 26.7
2017-Aug-20 19:47 202 26.7
2017-Aug-20 19:38 199 26.7
2017-Aug-20 19:29 204 26.7
2017-Aug-20 19:20 204 26.7
2017-Aug-20 19:11 202 26.7
2017-Aug-20 19:02 202 26.7
2017-Aug-20 18:53 202 26.7
2017-Aug-20 18:44 225 1 gusting 1 26.7
2017-Aug-20 18:35 202 4 gusting 4 26.7
2017-Aug-20 18:26 202 1 26.7
2017-Aug-20 18:17 269 1 gusting 2 26.7
2017-Aug-20 18:08 273 2 gusting 2 26.7
2017-Aug-20 17:59 204 0 gusting 0 27.2
2017-Aug-20 17:50 202 0 gusting 0 27.2
2017-Aug-20 17:41 202 0 gusting 0 27.2
2017-Aug-20 17:32 256 27.2
2017-Aug-20 17:23 226 1 gusting 1 27.8
2017-Aug-20 17:14 226 1 gusting 1 27.8
2017-Aug-20 17:05 225 1 gusting 1 27.8
2017-Aug-20 16:56 225 1 gusting 1 27.8
2017-Aug-20 16:49 231 27.8
2017-Aug-20 16:38 234 6 gusting 6 27.8
2017-Aug-20 16:29 270 8 gusting 8 28.3
2017-Aug-20 16:20 292 2 gusting 4 28.9
2017-Aug-20 16:11 209 2 gusting 2 28.9
2017-Aug-20 16:02 214 2 gusting 4 29.4
2017-Aug-20 15:53 270 4 gusting 4 29.4
2017-Aug-20 15:44 270 2 gusting 2 29.4
2017-Aug-20 15:35 270 5 gusting 6 30.0
2017-Aug-20 15:26 185 2 gusting 4 29.4
2017-Aug-20 15:18 270 2 gusting 6 30.0
2017-Aug-20 15:08 212 4 gusting 4 30.0
2017-Aug-20 14:59 270 4 gusting 4 30.0
2017-Aug-20 14:50 270 5 gusting 5 30.6
2017-Aug-20 14:41 292 2 gusting 4 30.6
2017-Aug-20 14:32 278 5 gusting 6 30.6
2017-Aug-20 14:23 270 2 gusting 5 30.6
2017-Aug-20 14:14 270 2 gusting 2 30.6
2017-Aug-20 14:05 270 5 gusting 5 31.1
2017-Aug-20 13:56 260 4 gusting 5 31.1
2017-Aug-20 13:47 270 4 gusting 4 31.1
2017-Aug-20 13:38 271 2 gusting 2 31.1
2017-Aug-20 13:29 292 2 gusting 2 31.1
2017-Aug-20 13:20 270 1 gusting 2 31.1
2017-Aug-20 13:11 287 2 gusting 2 31.1
2017-Aug-20 13:02 253 5 gusting 5 31.1
2017-Aug-20 12:53 287 5 gusting 5 31.1
2017-Aug-20 12:44 292 5 gusting 5 31.1
2017-Aug-20 12:35 292 5 gusting 4 31.1
2017-Aug-20 12:26 285 5 gusting 6 30.6
2017-Aug-20 12:17 292 2 gusting 5 30.6
2017-Aug-20 12:08 292 0 gusting 0 30.6
2017-Aug-20 11:59 292 2 gusting 2 30.6
2017-Aug-20 11:50 292 4 gusting 2 30.6
2017-Aug-20 11:41 270 0 30.6
2017-Aug-20 11:32 292 4 gusting 5 30.6
2017-Aug-20 11:23 292 4 gusting 4 30.6
2017-Aug-20 11:16 30.0
2017-Aug-20 11:14 30.0
2017-Aug-20 11:05 296 4 gusting 6 30.0
2017-Aug-20 10:56 292 2 gusting 2 29.4
2017-Aug-20 10:47 292 4 gusting 4 29.4
2017-Aug-20 10:38 292 1 gusting 2 29.4
2017-Aug-20 10:29 292 5 gusting 5 28.9
2017-Aug-20 10:20 292 2 gusting 4 28.3
2017-Aug-20 10:11 294 2 gusting 2 27.8
2017-Aug-20 10:02 011 27.8
2017-Aug-20 09:53 090 2 gusting 2 27.8
2017-Aug-20 09:44 090 27.8
2017-Aug-20 09:35 090 4 gusting 4 27.2
2017-Aug-20 09:26 090 1 gusting 1 27.2
2017-Aug-20 09:17 022 4 gusting 4 27.2
2017-Aug-20 09:08 022 1 gusting 2 27.2